Rugby, North Dakota
Current Conditions -  °F | °C
As of 4:35 PM on Monday 24 Nov 2014 (Local Time) from KRUG Reporting Station
Clear Clear  
Wind Chill:   Ceiling: Unl
Heat Index: 14°   Visibility: 10mi
Dew Point:   Wind: 7mph
Humidity: 62%   Direction: 310°NW
Pressure: 29.95"   Gusts: NA
Location:  48.37°N, 100°W
Report Text: KRUG 242235Z AUTO 31006KT 10SM CLR M10/M16 A2995 RMK AO2
Loading
Personal Weather Stations






























Interactive Weather Map New forecast layout! Learn more

10-Day Weather Forecast

Advertisements
Track Severe Weather on mobile